sensor_id;sensor_type;location;lat;lon;timestamp;pressure;altitude;pressure_sealevel;temperature;humidity
16544;BME280;8384;47.996;7.786;2024-03-06T00:00:04;98849.09;;;5.00;100.00
16544;BME280;8384;47.996;7.786;2024-03-06T00:02:29;98706.91;;;4.22;100.00
16544;BME280;8384;47.996;7.786;2024-03-06T00:04:55;98764.50;;;4.54;100.00
16544;BME280;8384;47.996;7.786;2024-03-06T00:07:20;98761.88;;;4.66;100.00
16544;BME280;8384;47.996;7.786;2024-03-06T00:09:45;98800.13;;;4.76;100.00
16544;BME280;8384;47.996;7.786;2024-03-06T00:12:10;98800.59;;;4.92;100.00
16544;BME280;8384;47.996;7.786;2024-03-06T00:14:36;98850.50;;;5.28;100.00
16544;BME280;8384;47.996;7.786;2024-03-06T00:17:01;98835.44;;;5.14;100.00
16544;BME280;8384;47.996;7.786;2024-03-06T00:19:29;98846.66;;;5.17;100.00
16544;BME280;8384;47.996;7.786;2024-03-06T00:21:55;98840.75;;;5.02;100.00
16544;BME280;8384;47.996;7.786;2024-03-06T00:24:20;98802.34;;;4.86;100.00
16544;BME280;8384;47.996;7.786;2024-03-06T00:26:45;98837.66;;;5.17;100.00
16544;BME280;8384;47.996;7.786;2024-03-06T00:29:12;98815.44;;;4.89;100.00
16544;BME280;8384;47.996;7.786;2024-03-06T00:31:42;98827.38;;;4.82;100.00
16544;BME280;8384;47.996;7.786;2024-03-06T00:34:08;98799.47;;;4.56;100.00
16544;BME280;8384;47.996;7.786;2024-03-06T00:36:34;98902.66;;;5.23;100.00
16544;BME280;8384;47.996;7.786;2024-03-06T00:38:59;98828.69;;;4.72;100.00
16544;BME280;8384;47.996;7.786;2024-03-06T00:41:24;98851.75;;;4.82;100.00
16544;BME280;8384;47.996;7.786;2024-03-06T00:43:50;98841.25;;;4.67;100.00
16544;BME280;8384;47.996;7.786;2024-03-06T00:46:15;98772.91;;;4.46;100.00
16544;BME280;8384;47.996;7.786;2024-03-06T00:48:40;98790.75;;;4.54;100.00
16544;BME280;8384;47.996;7.786;2024-03-06T00:51:06;98761.69;;;4.17;100.00
16544;BME280;8384;47.996;7.786;2024-03-06T00:53:35;98846.97;;;4.77;100.00
16544;BME280;8384;47.996;7.786;2024-03-06T00:56:00;98848.00;;;4.83;100.00
16544;BME280;8384;47.996;7.786;2024-03-06T00:58:25;98905.78;;;5.02;100.00
16544;BME280;8384;47.996;7.786;2024-03-06T01:00:50;98884.47;;;4.80;100.00
16544;BME280;8384;47.996;7.786;2024-03-06T01:03:16;98908.63;;;4.82;100.00
16544;BME280;8384;47.996;7.786;2024-03-06T01:05:41;98892.69;;;4.67;100.00
16544;BME280;8384;47.996;7.786;2024-03-06T01:08:06;98904.75;;;4.96;100.00
16544;BME280;8384;47.996;7.786;2024-03-06T01:10:32;98892.69;;;4.92;100.00
16544;BME280;8384;47.996;7.786;2024-03-06T01:12:57;98884.25;;;4.82;100.00
16544;BME280;8384;47.996;7.786;2024-03-06T01:15:22;98905.88;;;4.88;100.00
16544;BME280;8384;47.996;7.786;2024-03-06T01:17:47;98909.63;;;4.87;100.00
16544;BME280;8384;47.996;7.786;2024-03-06T01:20:13;98911.41;;;5.00;100.00
16544;BME280;8384;47.996;7.786;2024-03-06T01:22:38;98916.50;;;5.15;100.00
16544;BME280;8384;47.996;7.786;2024-03-06T01:25:04;98839.41;;;4.60;100.00
16544;BME280;8384;47.996;7.786;2024-03-06T01:27:29;98925.56;;;5.28;100.00
16544;BME280;8384;47.996;7.786;2024-03-06T01:29:55;98899.94;;;4.98;100.00
16544;BME280;8384;47.996;7.786;2024-03-06T01:32:20;98894.97;;;4.95;100.00
16544;BME280;8384;47.996;7.786;2024-03-06T01:34:45;98906.22;;;4.99;100.00
16544;BME280;8384;47.996;7.786;2024-03-06T01:37:11;98923.03;;;5.07;100.00
16544;BME280;8384;47.996;7.786;2024-03-06T01:39:36;98906.16;;;5.05;100.00
16544;BME280;8384;47.996;7.786;2024-03-06T01:42:02;98928.19;;;5.09;100.00
16544;BME280;8384;47.996;7.786;2024-03-06T01:44:27;98898.13;;;4.92;100.00
16544;BME280;8384;47.996;7.786;2024-03-06T01:46:52;98927.75;;;5.12;100.00
16544;BME280;8384;47.996;7.786;2024-03-06T01:49:19;98894.47;;;4.79;100.00
16544;BME280;8384;47.996;7.786;2024-03-06T01:51:49;98920.81;;;4.98;100.00
16544;BME280;8384;47.996;7.786;2024-03-06T01:54:15;98889.25;;;4.85;100.00
16544;BME280;8384;47.996;7.786;2024-03-06T01:56:44;98916.16;;;5.05;100.00
16544;BME280;8384;47.996;7.786;2024-03-06T01:59:11;98901.59;;;4.99;100.00
16544;BME280;8384;47.996;7.786;2024-03-06T02:01:37;98887.41;;;4.78;100.00
16544;BME280;8384;47.996;7.786;2024-03-06T02:04:02;98924.34;;;4.98;100.00
16544;BME280;8384;47.996;7.786;2024-03-06T02:06:28;98927.03;;;4.98;100.00
16544;BME280;8384;47.996;7.786;2024-03-06T02:08:53;98936.56;;;5.07;100.00
16544;BME280;8384;47.996;7.786;2024-03-06T02:11:18;98931.16;;;5.07;100.00
16544;BME280;8384;47.996;7.786;2024-03-06T02:13:44;98903.75;;;4.90;100.00
16544;BME280;8384;47.996;7.786;2024-03-06T02:16:10;98938.88;;;5.04;100.00
16544;BME280;8384;47.996;7.786;2024-03-06T02:18:36;98937.78;;;5.12;100.00
16544;BME280;8384;47.996;7.786;2024-03-06T02:21:02;98929.69;;;5.05;100.00
16544;BME280;8384;47.996;7.786;2024-03-06T02:23:27;98937.00;;;5.04;100.00
16544;BME280;8384;47.996;7.786;2024-03-06T02:25:52;98934.53;;;5.03;100.00
16544;BME280;8384;47.996;7.786;2024-03-06T02:28:18;98940.75;;;5.03;100.00
16544;BME280;8384;47.996;7.786;2024-03-06T02:30:44;98939.72;;;5.30;100.00
16544;BME280;8384;47.996;7.786;2024-03-06T02:33:09;98941.25;;;5.44;100.00
16544;BME280;8384;47.996;7.786;2024-03-06T02:35:35;98938.78;;;5.43;100.00
16544;BME280;8384;47.996;7.786;2024-03-06T02:38:01;98939.25;;;5.33;100.00
16544;BME280;8384;47.996;7.786;2024-03-06T02:40:28;98946.59;;;5.51;100.00
16544;BME280;8384;47.996;7.786;2024-03-06T02:42:53;98934.09;;;5.50;100.00
16544;BME280;8384;47.996;7.786;2024-03-06T02:45:19;98939.94;;;5.28;100.00
16544;BME280;8384;47.996;7.786;2024-03-06T02:47:44;98941.63;;;4.97;100.00
16544;BME280;8384;47.996;7.786;2024-03-06T02:50:10;98928.03;;;4.78;100.00
16544;BME280;8384;47.996;7.786;2024-03-06T02:52:35;98914.78;;;4.63;100.00
16544;BME280;8384;47.996;7.786;2024-03-06T02:55:01;98907.03;;;4.74;100.00
16544;BME280;8384;47.996;7.786;2024-03-06T02:57:27;98931.22;;;5.01;100.00
16544;BME280;8384;47.996;7.786;2024-03-06T02:59:56;98884.91;;;4.77;100.00
16544;BME280;8384;47.996;7.786;2024-03-06T03:02:21;98918.00;;;4.79;100.00
16544;BME280;8384;47.996;7.786;2024-03-06T03:04:47;98941.75;;;4.84;100.00
16544;BME280;8384;47.996;7.786;2024-03-06T03:07:12;98941.56;;;5.04;100.00
16544;BME280;8384;47.996;7.786;2024-03-06T03:09:38;98942.03;;;5.01;100.00
16544;BME280;8384;47.996;7.786;2024-03-06T03:12:04;98945.81;;;5.00;100.00
16544;BME280;8384;47.996;7.786;2024-03-06T03:14:29;98928.84;;;4.79;100.00
16544;BME280;8384;47.996;7.786;2024-03-06T03:16:54;98943.91;;;5.00;100.00
16544;BME280;8384;47.996;7.786;2024-03-06T03:19:19;98941.47;;;4.92;100.00
16544;BME280;8384;47.996;7.786;2024-03-06T03:21:45;98925.88;;;4.87;100.00
16544;BME280;8384;47.996;7.786;2024-03-06T03:24:10;98953.31;;;4.98;100.00
16544;BME280;8384;47.996;7.786;2024-03-06T03:26:36;98901.72;;;4.54;100.00
16544;BME280;8384;47.996;7.786;2024-03-06T03:29:02;98925.31;;;5.04;100.00
16544;BME280;8384;47.996;7.786;2024-03-06T03:31:27;98933.44;;;5.04;100.00
16544;BME280;8384;47.996;7.786;2024-03-06T03:33:53;98902.59;;;4.79;100.00
16544;BME280;8384;47.996;7.786;2024-03-06T03:36:18;98927.78;;;4.80;100.00
16544;BME280;8384;47.996;7.786;2024-03-06T03:38:43;98926.63;;;4.69;100.00
16544;BME280;8384;47.996;7.786;2024-03-06T03:41:12;98941.38;;;4.73;100.00
16544;BME280;8384;47.996;7.786;2024-03-06T03:43:38;98929.84;;;4.53;100.00
16544;BME280;8384;47.996;7.786;2024-03-06T03:46:04;98941.91;;;4.57;100.00
16544;BME280;8384;47.996;7.786;2024-03-06T03:48:30;98947.59;;;4.80;100.00
16544;BME280;8384;47.996;7.786;2024-03-06T03:50:55;98952.78;;;4.82;100.00
16544;BME280;8384;47.996;7.786;2024-03-06T03:53:21;98928.56;;;4.62;100.00
16544;BME280;8384;47.996;7.786;2024-03-06T03:55:46;98931.72;;;4.52;100.00
16544;BME280;8384;47.996;7.786;2024-03-06T03:58:11;98955.16;;;4.72;100.00
16544;BME280;8384;47.996;7.786;2024-03-06T04:00:36;98956.50;;;4.56;100.00
16544;BME280;8384;47.996;7.786;2024-03-06T04:03:03;98961.28;;;4.54;100.00
16544;BME280;8384;47.996;7.786;2024-03-06T04:05:29;98956.31;;;4.50;100.00
16544;BME280;8384;47.996;7.786;2024-03-06T04:07:54;98974.97;;;4.65;100.00
16544;BME280;8384;47.996;7.786;2024-03-06T04:10:19;98981.34;;;4.78;100.00
16544;BME280;8384;47.996;7.786;2024-03-06T04:12:44;98955.78;;;4.67;100.00
16544;BME280;8384;47.996;7.786;2024-03-06T04:15:10;98955.22;;;4.58;100.00
16544;BME280;8384;47.996;7.786;2024-03-06T04:17:35;98966.75;;;4.79;100.00
16544;BME280;8384;47.996;7.786;2024-03-06T04:20:02;98991.13;;;4.86;100.00
16544;BME280;8384;47.996;7.786;2024-03-06T04:22:27;98962.97;;;4.87;100.00
16544;BME280;8384;47.996;7.786;2024-03-06T04:24:54;98976.34;;;4.82;100.00
16544;BME280;8384;47.996;7.786;2024-03-06T04:27:21;98979.91;;;4.75;100.00
16544;BME280;8384;47.996;7.786;2024-03-06T04:29:46;98971.88;;;4.62;100.00
16544;BME280;8384;47.996;7.786;2024-03-06T04:32:11;98992.25;;;4.64;100.00
16544;BME280;8384;47.996;7.786;2024-03-06T04:34:36;98971.97;;;4.42;100.00
16544;BME280;8384;47.996;7.786;2024-03-06T04:37:02;98996.88;;;4.57;100.00
16544;BME280;8384;47.996;7.786;2024-03-06T04:39:27;98976.31;;;4.49;100.00
16544;BME280;8384;47.996;7.786;2024-03-06T04:41:53;99006.47;;;4.60;100.00
16544;BME280;8384;47.996;7.786;2024-03-06T04:44:18;99004.38;;;4.62;100.00
16544;BME280;8384;47.996;7.786;2024-03-06T04:46:43;99008.31;;;4.59;100.00
16544;BME280;8384;47.996;7.786;2024-03-06T04:49:08;99012.06;;;4.58;100.00
16544;BME280;8384;47.996;7.786;2024-03-06T04:51:34;98972.88;;;4.29;100.00
16544;BME280;8384;47.996;7.786;2024-03-06T04:53:59;99006.69;;;4.52;100.00
16544;BME280;8384;47.996;7.786;2024-03-06T04:56:24;99014.19;;;4.49;100.00
16544;BME280;8384;47.996;7.786;2024-03-06T04:58:49;99018.75;;;4.56;100.00
16544;BME280;8384;47.996;7.786;2024-03-06T05:01:16;99024.78;;;4.58;100.00
16544;BME280;8384;47.996;7.786;2024-03-06T05:03:41;99004.06;;;4.31;100.00
16544;BME280;8384;47.996;7.786;2024-03-06T05:06:07;99008.41;;;4.39;100.00
16544;BME280;8384;47.996;7.786;2024-03-06T05:08:32;99017.09;;;4.55;100.00
16544;BME280;8384;47.996;7.786;2024-03-06T05:11:00;99000.28;;;4.46;100.00
16544;BME280;8384;47.996;7.786;2024-03-06T05:13:25;98994.00;;;4.45;100.00
16544;BME280;8384;47.996;7.786;2024-03-06T05:15:51;99007.06;;;4.62;100.00
16544;BME280;8384;47.996;7.786;2024-03-06T05:18:17;99029.28;;;4.77;100.00
16544;BME280;8384;47.996;7.786;2024-03-06T05:20:42;99028.66;;;4.75;100.00
16544;BME280;8384;47.996;7.786;2024-03-06T05:23:08;99011.50;;;4.49;100.00
16544;BME280;8384;47.996;7.786;2024-03-06T05:25:33;99031.59;;;4.67;100.00
16544;BME280;8384;47.996;7.786;2024-03-06T05:27:59;99002.09;;;4.52;100.00
16544;BME280;8384;47.996;7.786;2024-03-06T05:30:24;99036.16;;;4.73;100.00
16544;BME280;8384;47.996;7.786;2024-03-06T05:32:49;99034.75;;;4.64;100.00
16544;BME280;8384;47.996;7.786;2024-03-06T05:35:15;99028.28;;;4.65;100.00
16544;BME280;8384;47.996;7.786;2024-03-06T05:37:41;99046.13;;;4.79;100.00
16544;BME280;8384;47.996;7.786;2024-03-06T05:40:07;99030.97;;;4.65;100.00
16544;BME280;8384;47.996;7.786;2024-03-06T05:42:32;99048.25;;;4.71;100.00
16544;BME280;8384;47.996;7.786;2024-03-06T05:44:58;99055.59;;;4.63;100.00
16544;BME280;8384;47.996;7.786;2024-03-06T05:47:30;99046.38;;;4.71;100.00
16544;BME280;8384;47.996;7.786;2024-03-06T05:49:56;99054.25;;;4.79;100.00
16544;BME280;8384;47.996;7.786;2024-03-06T05:52:21;99059.44;;;4.81;100.00
16544;BME280;8384;47.996;7.786;2024-03-06T05:54:46;99041.38;;;4.68;100.00
16544;BME280;8384;47.996;7.786;2024-03-06T05:57:12;99052.69;;;4.58;100.00
16544;BME280;8384;47.996;7.786;2024-03-06T05:59:37;99068.31;;;4.63;100.00
16544;BME280;8384;47.996;7.786;2024-03-06T06:02:02;99067.41;;;4.69;100.00
16544;BME280;8384;47.996;7.786;2024-03-06T06:04:29;99035.00;;;4.56;100.00
16544;BME280;8384;47.996;7.786;2024-03-06T06:06:54;99043.50;;;4.59;100.00
16544;BME280;8384;47.996;7.786;2024-03-06T06:09:19;99060.84;;;4.52;100.00
16544;BME280;8384;47.996;7.786;2024-03-06T06:11:45;99077.66;;;4.60;100.00
16544;BME280;8384;47.996;7.786;2024-03-06T06:14:10;99062.97;;;4.29;100.00
16544;BME280;8384;47.996;7.786;2024-03-06T06:16:39;99081.44;;;4.53;100.00
16544;BME280;8384;47.996;7.786;2024-03-06T06:19:06;99081.41;;;4.59;100.00
16544;BME280;8384;47.996;7.786;2024-03-06T06:21:31;99069.78;;;4.59;100.00
16544;BME280;8384;47.996;7.786;2024-03-06T06:23:57;99063.75;;;4.57;100.00
16544;BME280;8384;47.996;7.786;2024-03-06T06:26:22;99068.75;;;4.46;100.00
16544;BME280;8384;47.996;7.786;2024-03-06T06:28:47;99086.19;;;4.64;100.00
16544;BME280;8384;47.996;7.786;2024-03-06T06:31:13;99101.63;;;4.63;100.00
16544;BME280;8384;47.996;7.786;2024-03-06T06:33:38;99098.09;;;4.63;100.00
16544;BME280;8384;47.996;7.786;2024-03-06T06:36:03;99077.47;;;4.55;100.00
16544;BME280;8384;47.996;7.786;2024-03-06T06:38:29;99087.28;;;4.49;100.00
16544;BME280;8384;47.996;7.786;2024-03-06T06:40:55;99097.00;;;4.64;100.00
16544;BME280;8384;47.996;7.786;2024-03-06T06:43:21;99104.06;;;4.78;100.00
16544;BME280;8384;47.996;7.786;2024-03-06T06:45:46;99104.44;;;4.89;100.00
16544;BME280;8384;47.996;7.786;2024-03-06T06:48:11;99123.94;;;5.04;100.00
16544;BME280;8384;47.996;7.786;2024-03-06T06:50:37;99107.31;;;5.01;100.00
16544;BME280;8384;47.996;7.786;2024-03-06T06:53:02;99085.53;;;4.75;100.00
16544;BME280;8384;47.996;7.786;2024-03-06T06:55:27;99135.13;;;5.21;100.00
16544;BME280;8384;47.996;7.786;2024-03-06T06:57:53;99120.34;;;5.17;100.00
16544;BME280;8384;47.996;7.786;2024-03-06T07:00:19;99126.22;;;5.07;100.00
16544;BME280;8384;47.996;7.786;2024-03-06T07:02:47;99123.53;;;5.07;100.00
16544;BME280;8384;47.996;7.786;2024-03-06T07:05:12;99140.81;;;5.06;100.00
16544;BME280;8384;47.996;7.786;2024-03-06T07:07:38;99131.22;;;5.04;100.00
16544;BME280;8384;47.996;7.786;2024-03-06T07:10:04;99141.16;;;5.17;100.00
16544;BME280;8384;47.996;7.786;2024-03-06T07:12:30;99152.19;;;5.22;100.00
16544;BME280;8384;47.996;7.786;2024-03-06T07:14:55;99151.16;;;5.23;100.00
16544;BME280;8384;47.996;7.786;2024-03-06T07:17:20;99152.63;;;5.19;100.00
16544;BME280;8384;47.996;7.786;2024-03-06T07:19:46;99150.97;;;5.24;100.00
16544;BME280;8384;47.996;7.786;2024-03-06T07:22:11;99158.72;;;5.14;100.00
16544;BME280;8384;47.996;7.786;2024-03-06T07:24:36;99158.72;;;5.14;100.00
16544;BME280;8384;47.996;7.786;2024-03-06T07:27:02;99161.22;;;5.16;100.00
16544;BME280;8384;47.996;7.786;2024-03-06T07:29:27;99168.31;;;5.10;100.00
16544;BME280;8384;47.996;7.786;2024-03-06T07:31:53;99156.16;;;4.74;100.00
16544;BME280;8384;47.996;7.786;2024-03-06T07:34:19;99167.34;;;4.98;100.00
16544;BME280;8384;47.996;7.786;2024-03-06T07:36:46;99165.69;;;4.90;100.00
16544;BME280;8384;47.996;7.786;2024-03-06T07:39:11;99170.28;;;4.89;100.00
16544;BME280;8384;47.996;7.786;2024-03-06T07:41:37;99182.56;;;4.85;100.00
16544;BME280;8384;47.996;7.786;2024-03-06T07:44:03;99182.59;;;4.78;100.00
16544;BME280;8384;47.996;7.786;2024-03-06T07:46:28;99191.38;;;4.74;100.00
16544;BME280;8384;47.996;7.786;2024-03-06T07:48:53;99168.00;;;4.79;100.00
16544;BME280;8384;47.996;7.786;2024-03-06T07:51:19;99183.59;;;4.98;100.00
16544;BME280;8384;47.996;7.786;2024-03-06T07:53:44;99182.34;;;4.93;100.00
16544;BME280;8384;47.996;7.786;2024-03-06T07:56:10;99166.53;;;4.77;100.00
16544;BME280;8384;47.996;7.786;2024-03-06T07:58:36;99198.19;;;4.97;100.00
16544;BME280;8384;47.996;7.786;2024-03-06T08:01:02;99186.72;;;4.94;100.00
16544;BME280;8384;47.996;7.786;2024-03-06T08:03:27;99195.47;;;4.97;100.00
16544;BME280;8384;47.996;7.786;2024-03-06T08:05:53;99200.88;;;4.97;100.00
16544;BME280;8384;47.996;7.786;2024-03-06T08:08:19;99207.09;;;5.04;100.00
16544;BME280;8384;47.996;7.786;2024-03-06T08:10:45;99185.41;;;5.04;100.00
16544;BME280;8384;47.996;7.786;2024-03-06T08:13:10;99195.81;;;5.14;100.00
16544;BME280;8384;47.996;7.786;2024-03-06T08:15:36;99204.75;;;5.21;100.00
16544;BME280;8384;47.996;7.786;2024-03-06T08:18:01;99200.97;;;5.22;100.00
16544;BME280;8384;47.996;7.786;2024-03-06T08:20:28;99204.13;;;5.25;100.00
16544;BME280;8384;47.996;7.786;2024-03-06T08:22:55;99198.06;;;5.23;100.00
16544;BME280;8384;47.996;7.786;2024-03-06T08:25:21;99179.16;;;5.10;100.00
16544;BME280;8384;47.996;7.786;2024-03-06T08:27:46;99207.66;;;5.26;100.00
16544;BME280;8384;47.996;7.786;2024-03-06T08:30:12;99200.31;;;5.33;100.00
16544;BME280;8384;47.996;7.786;2024-03-06T08:32:38;99200.13;;;5.28;100.00
16544;BME280;8384;47.996;7.786;2024-03-06T08:35:09;99207.75;;;5.45;100.00
16544;BME280;8384;47.996;7.786;2024-03-06T08:37:40;99186.38;;;5.23;100.00
16544;BME280;8384;47.996;7.786;2024-03-06T08:40:07;99211.47;;;5.57;100.00
16544;BME280;8384;47.996;7.786;2024-03-06T08:42:33;99216.88;;;5.57;100.00
16544;BME280;8384;47.996;7.786;2024-03-06T08:44:58;99198.13;;;5.55;100.00
16544;BME280;8384;47.996;7.786;2024-03-06T08:47:24;99216.03;;;5.63;100.00
16544;BME280;8384;47.996;7.786;2024-03-06T08:49:49;99219.31;;;5.72;100.00
16544;BME280;8384;47.996;7.786;2024-03-06T08:52:15;99185.63;;;5.48;100.00
16544;BME280;8384;47.996;7.786;2024-03-06T08:54:40;99191.69;;;5.50;100.00
16544;BME280;8384;47.996;7.786;2024-03-06T08:57:06;99232.91;;;5.65;100.00
16544;BME280;8384;47.996;7.786;2024-03-06T08:59:31;99178.63;;;5.33;100.00
16544;BME280;8384;47.996;7.786;2024-03-06T09:01:57;99231.41;;;5.69;100.00
16544;BME280;8384;47.996;7.786;2024-03-06T09:04:22;99236.81;;;5.76;100.00
16544;BME280;8384;47.996;7.786;2024-03-06T09:06:48;99234.47;;;5.80;100.00
16544;BME280;8384;47.996;7.786;2024-03-06T09:09:14;99243.00;;;5.83;100.00
16544;BME280;8384;47.996;7.786;2024-03-06T09:11:40;99224.50;;;5.74;100.00
16544;BME280;8384;47.996;7.786;2024-03-06T09:14:06;99234.06;;;5.83;100.00
16544;BME280;8384;47.996;7.786;2024-03-06T09:16:32;99235.91;;;5.89;100.00
16544;BME280;8384;47.996;7.786;2024-03-06T09:18:57;99240.91;;;5.92;100.00
16544;BME280;8384;47.996;7.786;2024-03-06T09:21:22;99238.34;;;6.04;100.00
16544;BME280;8384;47.996;7.786;2024-03-06T09:23:47;99242.41;;;6.20;100.00
16544;BME280;8384;47.996;7.786;2024-03-06T09:26:16;99226.94;;;6.21;100.00
16544;BME280;8384;47.996;7.786;2024-03-06T09:28:42;99220.56;;;6.34;100.00
16544;BME280;8384;47.996;7.786;2024-03-06T09:31:07;99242.91;;;6.61;100.00
16544;BME280;8384;47.996;7.786;2024-03-06T09:33:32;99222.06;;;6.55;100.00
16544;BME280;8384;47.996;7.786;2024-03-06T09:35:58;99219.00;;;6.70;100.00
16544;BME280;8384;47.996;7.786;2024-03-06T09:38:24;99241.13;;;6.92;100.00
16544;BME280;8384;47.996;7.786;2024-03-06T09:40:49;99257.47;;;7.11;100.00
16544;BME280;8384;47.996;7.786;2024-03-06T09:43:16;99242.03;;;7.23;100.00
16544;BME280;8384;47.996;7.786;2024-03-06T09:45:44;99230.25;;;7.29;100.00
16544;BME280;8384;47.996;7.786;2024-03-06T09:48:13;99252.06;;;7.41;100.00
16544;BME280;8384;47.996;7.786;2024-03-06T09:50:41;99264.75;;;7.66;100.00
16544;BME280;8384;47.996;7.786;2024-03-06T09:53:09;99279.47;;;7.77;100.00
16544;BME280;8384;47.996;7.786;2024-03-06T09:55:35;99247.81;;;7.64;100.00
16544;BME280;8384;47.996;7.786;2024-03-06T09:58:00;99261.31;;;7.71;100.00
16544;BME280;8384;47.996;7.786;2024-03-06T10:00:28;99272.16;;;7.59;100.00
16544;BME280;8384;47.996;7.786;2024-03-06T10:02:57;99274.56;;;7.67;100.00
16544;BME280;8384;47.996;7.786;2024-03-06T10:05:26;99251.75;;;7.68;100.00
16544;BME280;8384;47.996;7.786;2024-03-06T10:07:52;99290.44;;;8.01;100.00
16544;BME280;8384;47.996;7.786;2024-03-06T10:10:19;99253.59;;;7.86;100.00
16544;BME280;8384;47.996;7.786;2024-03-06T10:12:45;99280.78;;;8.17;100.00
16544;BME280;8384;47.996;7.786;2024-03-06T10:15:13;99271.41;;;8.13;100.00
16544;BME280;8384;47.996;7.786;2024-03-06T10:17:38;99285.66;;;8.26;100.00
16544;BME280;8384;47.996;7.786;2024-03-06T10:20:19;99283.44;;;8.35;100.00
16544;BME280;8384;47.996;7.786;2024-03-06T10:22:47;99285.53;;;8.21;100.00
16544;BME280;8384;47.996;7.786;2024-03-06T10:25:13;99254.03;;;8.25;100.00
16544;BME280;8384;47.996;7.786;2024-03-06T10:27:38;99278.91;;;8.60;100.00
16544;BME280;8384;47.996;7.786;2024-03-06T10:30:05;99277.97;;;8.78;100.00
16544;BME280;8384;47.996;7.786;2024-03-06T10:32:31;99288.03;;;9.01;100.00
16544;BME280;8384;47.996;7.786;2024-03-06T10:34:56;99283.66;;;9.12;99.63
16544;BME280;8384;47.996;7.786;2024-03-06T10:37:22;99291.72;;;9.19;96.41
16544;BME280;8384;47.996;7.786;2024-03-06T10:39:51;99236.94;;;8.96;95.78
16544;BME280;8384;47.996;7.786;2024-03-06T10:42:17;99246.97;;;9.32;94.92
16544;BME280;8384;47.996;7.786;2024-03-06T10:44:52;99286.78;;;9.56;93.08
16544;BME280;8384;47.996;7.786;2024-03-06T10:47:20;99268.06;;;9.36;87.94
16544;BME280;8384;47.996;7.786;2024-03-06T10:49:46;99285.41;;;9.71;89.39
16544;BME280;8384;47.996;7.786;2024-03-06T10:52:11;99265.00;;;9.73;87.23
16544;BME280;8384;47.996;7.786;2024-03-06T10:54:37;99282.66;;;10.12;85.47
16544;BME280;8384;47.996;7.786;2024-03-06T10:57:08;99243.31;;;9.96;83.05
16544;BME280;8384;47.996;7.786;2024-03-06T10:59:34;99245.09;;;10.19;84.01
16544;BME280;8384;47.996;7.786;2024-03-06T11:02:00;99285.50;;;10.34;80.23
16544;BME280;8384;47.996;7.786;2024-03-06T11:04:27;99285.25;;;10.35;76.09
16544;BME280;8384;47.996;7.786;2024-03-06T11:07:00;99277.81;;;10.31;74.89
16544;BME280;8384;47.996;7.786;2024-03-06T11:09:26;99274.72;;;10.39;81.02
16544;BME280;8384;47.996;7.786;2024-03-06T11:11:52;99275.38;;;10.63;80.03
16544;BME280;8384;47.996;7.786;2024-03-06T11:14:21;99274.66;;;10.22;77.89
16544;BME280;8384;47.996;7.786;2024-03-06T11:17:16;99272.94;;;9.34;80.32
16544;BME280;8384;47.996;7.786;2024-03-06T11:28:21;99259.66;;;9.38;86.96
16544;BME280;8384;47.996;7.786;2024-03-06T11:30:57;99274.03;;;9.74;84.36
16544;BME280;8384;47.996;7.786;2024-03-06T11:33:40;99266.25;;;9.66;83.67
16544;BME280;8384;47.996;7.786;2024-03-06T11:41:31;99261.59;;;9.66;79.84
16544;BME280;8384;47.996;7.786;2024-03-06T11:43:59;99274.13;;;9.79;77.85
16544;BME280;8384;47.996;7.786;2024-03-06T11:46:44;99269.53;;;9.97;78.03
16544;BME280;8384;47.996;7.786;2024-03-06T11:49:29;99235.97;;;10.13;77.64
16544;BME280;8384;47.996;7.786;2024-03-06T11:51:59;99238.41;;;10.95;75.55
16544;BME280;8384;47.996;7.786;2024-03-06T11:54:25;99240.56;;;11.15;72.75
16544;BME280;8384;47.996;7.786;2024-03-06T11:56:56;99266.06;;;11.38;72.42
16544;BME280;8384;47.996;7.786;2024-03-06T11:59:29;99254.66;;;10.85;69.39
16544;BME280;8384;47.996;7.786;2024-03-06T12:01:56;99266.75;;;10.72;70.35
16544;BME280;8384;47.996;7.786;2024-03-06T12:04:22;99260.44;;;10.37;67.93
16544;BME280;8384;47.996;7.786;2024-03-06T12:06:47;99238.00;;;10.69;70.90
16544;BME280;8384;47.996;7.786;2024-03-06T12:09:14;99238.44;;;10.61;71.55
16544;BME280;8384;47.996;7.786;2024-03-06T12:11:40;99257.69;;;10.88;70.91
16544;BME280;8384;47.996;7.786;2024-03-06T12:14:13;99250.03;;;11.07;70.17
16544;BME280;8384;47.996;7.786;2024-03-06T12:16:38;99261.44;;;11.21;67.29
16544;BME280;8384;47.996;7.786;2024-03-06T12:19:04;99237.72;;;10.88;69.20
16544;BME280;8384;47.996;7.786;2024-03-06T12:21:33;99266.66;;;10.84;66.65
16544;BME280;8384;47.996;7.786;2024-03-06T12:24:08;99205.09;;;10.30;65.88
16544;BME280;8384;47.996;7.786;2024-03-06T12:26:35;99261.34;;;10.94;70.02
16544;BME280;8384;47.996;7.786;2024-03-06T12:29:08;99257.75;;;11.10;67.53
16544;BME280;8384;47.996;7.786;2024-03-06T12:31:36;99254.63;;;11.02;65.04
16544;BME280;8384;47.996;7.786;2024-03-06T12:34:01;99256.47;;;10.96;69.33
16544;BME280;8384;47.996;7.786;2024-03-06T12:36:27;99254.66;;;10.85;65.95
16544;BME280;8384;47.996;7.786;2024-03-06T12:38:55;99226.97;;;10.30;69.21
16544;BME280;8384;47.996;7.786;2024-03-06T12:41:20;99247.97;;;10.41;67.50
16544;BME280;8384;47.996;7.786;2024-03-06T12:43:45;99232.19;;;10.83;67.15
16544;BME280;8384;47.996;7.786;2024-03-06T12:46:12;99242.97;;;11.51;62.71
16544;BME280;8384;47.996;7.786;2024-03-06T12:48:37;99199.84;;;11.41;63.04
16544;BME280;8384;47.996;7.786;2024-03-06T12:51:03;99247.38;;;12.02;63.33
16544;BME280;8384;47.996;7.786;2024-03-06T12:53:30;99247.09;;;12.30;59.38
16544;BME280;8384;47.996;7.786;2024-03-06T12:55:56;99245.88;;;12.49;59.18
16544;BME280;8384;47.996;7.786;2024-03-06T12:58:21;99217.09;;;10.97;58.99
16544;BME280;8384;47.996;7.786;2024-03-06T13:00:46;99219.19;;;10.73;63.14
16544;BME280;8384;47.996;7.786;2024-03-06T13:03:12;99236.69;;;10.72;64.87
16544;BME280;8384;47.996;7.786;2024-03-06T13:05:37;99232.63;;;9.94;67.17
16544;BME280;8384;47.996;7.786;2024-03-06T13:08:02;99236.13;;;10.06;68.50
16544;BME280;8384;47.996;7.786;2024-03-06T13:10:28;99202.50;;;9.89;68.20
16544;BME280;8384;47.996;7.786;2024-03-06T13:12:53;99229.63;;;9.79;71.50
16544;BME280;8384;47.996;7.786;2024-03-06T13:15:19;99225.84;;;9.80;70.64
16544;BME280;8384;47.996;7.786;2024-03-06T13:17:45;99215.41;;;9.94;67.90
16544;BME280;8384;47.996;7.786;2024-03-06T13:20:10;99211.69;;;10.00;68.09